Terminal Aerodrome Forecast
Issued by NWS

Home | Current Version | Previous Version | Text Only | Print | Product List | Glossary On
Versions: 1 2 3 4 5 6 7 8 9 10 11 12 13
819
FTUS45 KTFX 120539
TAFLWT
TAF
KLWT 120539Z 1206/1306 VRB05KT P6SM SKC
     FM121400 24011KT P6SM SKC
     FM121800 26021G30KT P6SM SCT200
      TEMPO 1220/1224 25033G45KT
     FM130100 24016KT P6SM SCT150=

USA.gov is the U.S. government's official web portal to all federal, state and local government web resources and services.